Terminal Aerodrome Forecast
Issued by NWS Cleveland, OH

Home | Current Version | Previous Version | Graphics & Text | Print | Product List | Glossary Off
Versions: 1 2 3 4 5 6 7 8 9 10 11 12 13 14 15 16 17

000
FTUS41 KCLE 171400 AAA
TAFMFD
TAF AMD
KMFD 171423Z 1714/1812 31004KT 2SM BR OVC006
      TEMPO 1714/1716 4SM BR BKN012
     FM171600 31007KT P6SM BKN012
     FM171700 32008KT P6SM SCT025
     FM180000 VRB03KT P6SM SKC=

USA.gov is the U.S. government's official web portal to all federal, state and local government web resources and services.